Time;durP1;ratioP1;P1;durP2;ratioP2;P2;SDS_P1;SDS_P2;PMS_P1;PMS_P2;Temp;Humidity;BMP_temperature;BMP_pressure;BME280_temperature;BME280_humidity;BME280_pressure;Samples;Min_cycle;Max_cycle;Signal;HPM_P1;HPM_P2
2023/10/24 00:00:55;;;;;;;11.40;7.07;;;10.20;99.90;;;;;;4994242;28;20038;-60
2023/10/24 00:03:21;;;;;;;9.32;7.38;;;10.10;99.90;;;;;;4996858;28;20516;-61
2023/10/24 00:05:48;;;;;;;9.40;5.97;;;10.20;99.90;;;;;;4996092;28;20118;-60
2023/10/24 00:08:14;;;;;;;7.88;7.18;;;10.20;99.90;;;;;;4994551;28;20061;-59
2023/10/24 00:10:39;;;;;;;7.03;6.32;;;10.20;99.90;;;;;;4996033;28;20033;-61
2023/10/24 00:13:05;;;;;;;9.95;5.97;;;10.20;99.90;;;;;;4994953;28;20457;-61
2023/10/24 00:15:31;;;;;;;7.10;5.30;;;10.20;99.90;;;;;;4994435;28;20036;-61
2023/10/24 00:17:56;;;;;;;6.30;5.70;;;10.30;99.90;;;;;;4997314;28;20053;-61
2023/10/24 00:20:22;;;;;;;9.05;5.50;;;10.30;99.90;;;;;;4997610;28;20030;-61
2023/10/24 00:22:47;;;;;;;6.10;5.50;;;10.30;99.90;;;;;;5000777;28;20038;-60
2023/10/24 00:25:14;;;;;;;6.78;5.30;;;10.20;99.90;;;;;;4990882;28;20027;-60
2023/10/24 00:27:39;;;;;;;11.13;6.32;;;10.30;99.90;;;;;;4998335;28;20053;-60
2023/10/24 00:30:05;;;;;;;7.32;5.55;;;10.30;99.90;;;;;;4999851;28;20481;-60
2023/10/24 00:32:31;;;;;;;7.07;5.30;;;10.30;99.90;;;;;;4995611;28;20062;-60
2023/10/24 00:34:57;;;;;;;7.13;5.38;;;10.20;99.90;;;;;;4997550;28;20088;-60
2023/10/24 00:37:22;;;;;;;12.07;6.50;;;10.10;99.90;;;;;;4994987;28;20033;-60
2023/10/24 00:39:48;;;;;;;5.63;5.13;;;10.10;99.90;;;;;;4999739;28;20457;-61
2023/10/24 00:42:14;;;;;;;6.32;5.40;;;10.10;99.90;;;;;;4997785;28;20030;-58
2023/10/24 00:44:40;;;;;;;12.80;5.25;;;10.20;99.90;;;;;;4999788;28;20054;-60
2023/10/24 00:47:06;;;;;;;8.07;5.30;;;10.20;99.90;;;;;;4996533;28;20033;-60
2023/10/24 00:49:32;;;;;;;5.45;4.95;;;10.20;99.90;;;;;;4993942;28;20038;-59
2023/10/24 00:51:58;;;;;;;8.30;5.32;;;10.20;99.90;;;;;;4996175;28;20077;-59
2023/10/24 00:54:27;;;;;;;5.75;4.80;;;10.20;99.90;;;;;;4996601;28;20033;-61
2023/10/24 00:56:53;;;;;;;8.00;5.47;;;10.20;99.90;;;;;;4995921;28;20081;-59
2023/10/24 00:59:20;;;;;;;7.57;4.88;;;10.30;99.90;;;;;;4992593;28;20062;-59
2023/10/24 01:01:46;;;;;;;8.43;5.45;;;10.30;99.90;;;;;;4995299;28;20034;-59
2023/10/24 01:04:12;;;;;;;7.60;6.05;;;10.30;99.90;;;;;;4996271;28;20524;-60
2023/10/24 01:06:38;;;;;;;10.68;6.47;;;10.30;99.90;;;;;;5001545;28;20048;-61
2023/10/24 01:09:04;;;;;;;10.27;5.72;;;10.30;99.90;;;;;;5001075;28;20138;-60
2023/10/24 01:11:30;;;;;;;7.30;5.68;;;10.30;99.90;;;;;;5000845;28;20477;-60
2023/10/24 01:13:56;;;;;;;12.43;6.18;;;10.30;99.90;;;;;;4999761;28;20060;-60
2023/10/24 01:16:22;;;;;;;6.00;4.78;;;10.30;99.90;;;;;;4999317;28;20514;-60
2023/10/24 01:18:48;;;;;;;6.05;4.28;;;10.30;99.90;;;;;;5002819;28;20033;-61
2023/10/24 01:21:13;;;;;;;8.40;4.88;;;10.30;99.90;;;;;;4999381;28;20384;-61
2023/10/24 01:23:40;;;;;;;8.45;4.35;;;10.30;99.90;;;;;;5001414;28;20354;-60
2023/10/24 01:26:07;;;;;;;5.15;3.78;;;10.30;99.90;;;;;;4999481;28;20036;-61
2023/10/24 01:28:33;;;;;;;5.53;4.25;;;10.30;99.90;;;;;;4995672;28;20049;-59
2023/10/24 01:30:59;;;;;;;4.88;3.83;;;10.30;99.90;;;;;;4999958;28;20030;-60
2023/10/24 01:33:24;;;;;;;8.15;3.65;;;10.30;99.90;;;;;;5004148;28;20076;-59
2023/10/24 01:35:50;;;;;;;5.25;3.78;;;10.30;99.90;;;;;;5002197;28;20110;-60
2023/10/24 01:38:15;;;;;;;4.38;3.80;;;10.40;99.90;;;;;;5001239;28;20030;-61
2023/10/24 01:40:41;;;;;;;7.53;3.65;;;10.40;99.90;;;;;;5000182;28;20045;-60
2023/10/24 01:43:07;;;;;;;6.80;4.07;;;10.40;99.90;;;;;;4998927;28;20026;-60
2023/10/24 01:45:32;;;;;;;5.70;4.45;;;10.40;99.90;;;;;;5003575;28;20088;-59
2023/10/24 01:47:58;;;;;;;5.90;2.97;;;10.40;99.90;;;;;;5005655;28;20018;-60
2023/10/24 01:50:24;;;;;;;4.18;3.35;;;10.50;99.90;;;;;;4999494;28;20023;-61
2023/10/24 01:52:49;;;;;;;5.55;3.42;;;10.50;99.90;;;;;;4998010;28;20026;-61
2023/10/24 01:55:15;;;;;;;4.57;3.38;;;10.50;99.90;;;;;;4999162;28;20029;-61
2023/10/24 01:57:41;;;;;;;4.28;3.30;;;10.60;99.90;;;;;;4997789;28;20380;-60
2023/10/24 02:00:07;;;;;;;5.05;3.60;;;10.60;99.90;;;;;;4998046;28;20042;-60
2023/10/24 02:02:33;;;;;;;4.47;3.13;;;10.60;99.90;;;;;;4998958;28;20038;-60
2023/10/24 02:04:58;;;;;;;3.83;3.25;;;10.60;99.90;;;;;;5000606;28;20023;-61
2023/10/24 02:07:27;;;;;;;4.57;3.38;;;10.60;99.90;;;;;;5001320;28;20037;-60
2023/10/24 02:09:53;;;;;;;5.00;3.45;;;10.60;99.90;;;;;;4999872;28;20125;-59
2023/10/24 02:12:19;;;;;;;3.58;3.22;;;10.60;99.90;;;;;;4998505;28;20050;-61
2023/10/24 02:14:44;;;;;;;4.32;3.42;;;10.60;99.90;;;;;;5000216;28;20037;-60
2023/10/24 02:17:10;;;;;;;8.23;3.22;;;10.60;99.90;;;;;;5000275;28;20782;-59
2023/10/24 02:19:35;;;;;;;6.45;3.17;;;10.60;99.90;;;;;;5000471;28;20030;-61
2023/10/24 02:22:01;;;;;;;4.03;3.03;;;10.60;99.90;;;;;;5000558;28;20572;-61
2023/10/24 02:24:27;;;;;;;4.10;3.28;;;10.60;99.90;;;;;;4998927;28;20030;-60
2023/10/24 02:26:52;;;;;;;5.25;3.05;;;10.60;99.90;;;;;;5001276;28;20377;-59
2023/10/24 02:29:18;;;;;;;6.57;3.30;;;10.60;99.90;;;;;;4998575;28;20042;-61
2023/10/24 02:31:43;;;;;;;4.03;2.95;;;10.70;99.90;;;;;;4999199;28;20021;-60
2023/10/24 02:34:09;;;;;;;7.68;3.00;;;10.70;99.90;;;;;;4997534;28;20580;-60
2023/10/24 02:36:35;;;;;;;6.43;3.30;;;10.60;99.90;;;;;;4994933;28;20475;-60
2023/10/24 02:39:00;;;;;;;5.25;2.78;;;10.70;99.90;;;;;;5000062;28;20526;-60
2023/10/24 02:41:26;;;;;;;4.15;2.80;;;10.70;99.90;;;;;;4998723;28;20134;-59
2023/10/24 02:43:51;;;;;;;5.35;3.40;;;10.60;99.90;;;;;;4999871;28;20477;-60
2023/10/24 02:46:17;;;;;;;4.72;2.95;;;10.70;99.90;;;;;;5000873;28;20030;-60
2023/10/24 02:48:43;;;;;;;4.63;4.18;;;10.60;99.90;;;;;;4999005;28;20030;-60
2023/10/24 02:51:08;;;;;;;6.82;2.88;;;10.60;99.90;;;;;;4997854;28;20729;-59
2023/10/24 02:53:34;;;;;;;6.88;3.35;;;10.60;99.90;;;;;;4999208;28;20503;-59
2023/10/24 02:56:03;;;;;;;5.38;3.10;;;10.70;99.90;;;;;;4997632;28;20026;-58
2023/10/24 02:58:28;;;;;;;4.35;3.13;;;10.70;99.90;;;;;;4997129;28;20026;-60
2023/10/24 03:00:55;;;;;;;9.80;3.30;;;10.70;99.90;;;;;;4998064;28;20026;-61
2023/10/24 03:03:20;;;;;;;6.85;3.33;;;10.80;99.90;;;;;;4997749;28;20022;-60
2023/10/24 03:05:46;;;;;;;4.13;2.58;;;10.80;99.90;;;;;;5000807;28;20032;-60
2023/10/24 03:08:11;;;;;;;5.25;3.17;;;10.80;99.90;;;;;;4999742;28;20027;-60
2023/10/24 03:10:41;;;;;;;4.60;2.70;;;10.80;99.90;;;;;;4999793;28;20026;-60
2023/10/24 03:13:07;;;;;;;3.55;2.65;;;10.80;99.90;;;;;;4997894;28;20026;-59
2023/10/24 03:15:34;;;;;;;3.45;3.00;;;10.80;99.90;;;;;;4996946;28;20884;-60
2023/10/24 03:18:00;;;;;;;4.10;3.45;;;10.80;99.90;;;;;;4998369;28;20017;-59
2023/10/24 03:20:26;;;;;;;3.15;2.80;;;10.80;99.90;;;;;;4998267;28;20026;-60
2023/10/24 03:22:52;;;;;;;4.22;3.15;;;10.70;99.90;;;;;;4994050;28;20022;-60
2023/10/24 03:25:18;;;;;;;7.25;3.28;;;10.70;99.90;;;;;;4998524;28;20543;-60
2023/10/24 03:27:43;;;;;;;6.15;3.60;;;10.70;99.90;;;;;;4999431;28;20460;-59
2023/10/24 03:30:09;;;;;;;10.65;5.13;;;10.70;99.90;;;;;;4997315;28;20026;-61
2023/10/24 03:32:35;;;;;;;6.68;3.67;;;10.70;99.90;;;;;;4999344;28;20022;-61
2023/10/24 03:35:00;;;;;;;5.13;3.50;;;10.70;99.90;;;;;;4997719;28;20570;-59
2023/10/24 03:37:26;;;;;;;5.95;3.10;;;10.70;99.90;;;;;;4995952;28;20036;-59
2023/10/24 03:39:51;;;;;;;6.40;3.78;;;10.70;99.90;;;;;;4997521;28;20501;-59
2023/10/24 03:42:17;;;;;;;3.90;3.35;;;10.80;99.90;;;;;;4998497;28;20051;-60
2023/10/24 03:44:42;;;;;;;4.85;3.20;;;10.80;99.90;;;;;;5000612;28;20075;-60
2023/10/24 03:47:08;;;;;;;5.15;3.30;;;10.80;99.90;;;;;;4995118;28;20046;-60
2023/10/24 03:49:34;;;;;;;3.90;2.88;;;10.80;99.90;;;;;;4996808;28;20030;-60
2023/10/24 03:52:00;;;;;;;7.22;3.20;;;10.80;99.90;;;;;;4996098;28;20033;-59
2023/10/24 03:54:26;;;;;;;3.83;3.38;;;10.90;99.90;;;;;;4998394;28;20034;-60
2023/10/24 03:56:51;;;;;;;5.60;3.17;;;10.90;99.90;;;;;;4997256;28;20500;-59
2023/10/24 03:59:17;;;;;;;7.32;3.70;;;10.90;99.90;;;;;;4998417;28;20070;-60
2023/10/24 04:01:43;;;;;;;6.18;3.30;;;10.80;99.90;;;;;;4983921;28;20026;-60
2023/10/24 04:04:09;;;;;;;8.02;4.20;;;10.80;99.90;;;;;;4997776;28;20030;-59
2023/10/24 04:06:34;;;;;;;7.40;3.58;;;10.80;99.90;;;;;;4997631;28;20038;-59
2023/10/24 04:09:04;;;;;;;4.50;3.70;;;10.80;99.90;;;;;;4997573;28;20029;-60
2023/10/24 04:11:32;;;;;;;4.07;3.67;;;10.70;99.90;;;;;;4998882;28;20030;-60
2023/10/24 04:13:58;;;;;;;5.05;3.90;;;10.80;99.90;;;;;;4993270;28;20030;-59
2023/10/24 04:16:24;;;;;;;5.63;3.50;;;10.80;99.90;;;;;;4999363;28;20033;-59
2023/10/24 04:18:50;;;;;;;4.82;3.83;;;10.80;99.90;;;;;;5003043;28;20102;-59
2023/10/24 04:21:16;;;;;;;5.47;3.88;;;10.80;99.90;;;;;;4992577;28;20022;-60
2023/10/24 04:23:41;;;;;;;7.60;3.72;;;10.80;99.90;;;;;;5002661;28;20045;-60
2023/10/24 04:26:07;;;;;;;4.18;3.78;;;10.80;99.90;;;;;;4999006;28;20069;-59
2023/10/24 04:28:33;;;;;;;3.97;3.33;;;10.90;99.90;;;;;;4994018;28;20096;-59
2023/10/24 04:30:59;;;;;;;3.88;3.35;;;10.90;99.90;;;;;;4997980;28;20034;-60
2023/10/24 04:33:25;;;;;;;5.20;4.20;;;11.00;99.90;;;;;;4999262;28;20038;-60
2023/10/24 04:35:51;;;;;;;5.65;3.20;;;11.00;99.90;;;;;;4999241;28;20049;-59
2023/10/24 04:38:19;;;;;;;5.88;3.30;;;11.10;99.90;;;;;;4998737;28;20050;-59
2023/10/24 04:40:45;;;;;;;5.55;3.42;;;11.10;99.90;;;;;;5001142;28;20026;-59
2023/10/24 04:43:11;;;;;;;3.80;3.42;;;11.10;99.90;;;;;;5001252;28;20049;-60
2023/10/24 04:45:37;;;;;;;4.65;3.35;;;11.10;99.90;;;;;;5001683;28;20026;-60
2023/10/24 04:48:04;;;;;;;4.68;3.78;;;11.10;99.90;;;;;;5000523;28;20073;-61
2023/10/24 04:50:30;;;;;;;4.47;3.45;;;11.10;99.90;;;;;;4999514;28;20037;-59
2023/10/24 04:52:56;;;;;;;3.72;3.42;;;11.20;99.90;;;;;;4999810;28;20026;-60
2023/10/24 04:55:22;;;;;;;7.00;3.83;;;11.20;99.90;;;;;;5000588;28;20073;-59
2023/10/24 04:57:49;;;;;;;4.15;3.75;;;11.20;99.90;;;;;;5000931;28;20023;-60
2023/10/24 05:00:15;;;;;;;5.45;3.92;;;11.20;99.90;;;;;;5000522;28;20113;-60
2023/10/24 05:02:42;;;;;;;5.30;3.67;;;11.20;99.90;;;;;;5002621;28;20764;-60
2023/10/24 05:05:09;;;;;;;4.40;4.00;;;11.20;99.90;;;;;;5001097;28;20042;-60
2023/10/24 05:07:35;;;;;;;6.18;4.22;;;11.20;99.90;;;;;;5001192;28;20070;-59
2023/10/24 05:10:02;;;;;;;4.90;3.75;;;11.20;99.90;;;;;;5003426;28;20018;-60
2023/10/24 05:12:27;;;;;;;5.40;4.05;;;11.10;99.90;;;;;;5001755;28;20112;-60
2023/10/24 05:14:53;;;;;;;10.18;4.93;;;11.10;99.90;;;;;;5002193;28;20117;-58
2023/10/24 05:17:19;;;;;;;16.58;5.25;;;11.10;99.90;;;;;;5000375;28;20033;-60
2023/10/24 05:19:44;;;;;;;5.95;4.97;;;11.00;99.90;;;;;;4999227;28;20030;-61
2023/10/24 05:22:11;;;;;;;17.80;5.43;;;11.00;99.90;;;;;;5001253;28;20037;-61
2023/10/24 05:24:37;;;;;;;15.27;6.53;;;10.90;99.90;;;;;;5002737;28;20041;-60
2023/10/24 05:27:04;;;;;;;5.70;3.60;;;10.90;99.90;;;;;;5000813;28;20065;-60
2023/10/24 05:29:34;;;;;;;6.30;4.07;;;10.90;99.90;;;;;;5002743;28;20018;-61
2023/10/24 05:32:00;;;;;;;4.57;4.13;;;10.90;99.90;;;;;;5001146;28;20521;-60
2023/10/24 05:34:27;;;;;;;5.38;3.50;;;10.90;99.90;;;;;;5000282;28;20054;-60
2023/10/24 05:36:53;;;;;;;5.40;3.80;;;10.90;99.90;;;;;;5000518;28;20092;-61
2023/10/24 05:39:19;;;;;;;5.20;4.40;;;10.90;99.90;;;;;;4997679;28;20046;-60
2023/10/24 05:41:46;;;;;;;5.63;4.03;;;10.90;99.90;;;;;;5000582;28;20018;-60
2023/10/24 05:44:11;;;;;;;5.60;3.97;;;10.90;99.90;;;;;;5000992;28;20430;-60
2023/10/24 05:46:37;;;;;;;6.13;4.10;;;10.90;99.90;;;;;;4998690;28;20027;-60
2023/10/24 05:49:02;;;;;;;7.65;4.82;;;10.90;99.90;;;;;;4999393;28;20045;-61
2023/10/24 05:51:29;;;;;;;8.25;4.28;;;10.90;99.90;;;;;;5002615;28;20037;-61
2023/10/24 05:53:55;;;;;;;4.55;4.07;;;10.80;99.90;;;;;;5001370;28;20104;-59
2023/10/24 05:56:21;;;;;;;5.05;3.80;;;10.80;99.90;;;;;;5000650;28;20121;-60
2023/10/24 05:58:47;;;;;;;6.72;4.68;;;10.80;99.90;;;;;;5000946;28;20102;-61
2023/10/24 06:01:14;;;;;;;6.00;5.13;;;10.80;99.90;;;;;;5000274;28;20105;-59
2023/10/24 06:03:39;;;;;;;7.75;4.78;;;10.80;99.90;;;;;;4999828;28;20033;-60
2023/10/24 06:06:05;;;;;;;6.20;4.60;;;10.80;99.90;;;;;;4997798;28;20027;-60
2023/10/24 06:08:31;;;;;;;5.50;4.47;;;10.80;99.90;;;;;;4999367;28;20105;-60
2023/10/24 06:10:57;;;;;;;6.85;3.88;;;10.80;99.90;;;;;;4999111;28;20058;-60
2023/10/24 06:13:24;;;;;;;6.68;4.38;;;10.90;99.90;;;;;;5003662;28;20054;-60
2023/10/24 06:15:49;;;;;;;12.90;4.65;;;10.90;99.90;;;;;;4999779;28;20030;-61
2023/10/24 06:18:15;;;;;;;4.82;3.72;;;10.90;99.90;;;;;;4997157;28;20042;-61
2023/10/24 06:20:41;;;;;;;8.20;4.15;;;10.90;99.90;;;;;;4999726;28;20493;-59
2023/10/24 06:23:07;;;;;;;4.10;3.70;;;11.00;99.90;;;;;;5000972;28;20069;-60
2023/10/24 06:25:38;;;;;;;4.45;3.70;;;11.00;99.90;;;;;;5002290;28;20033;-61
2023/10/24 06:28:04;;;;;;;7.20;4.40;;;11.00;99.90;;;;;;5000729;28;20037;-60
2023/10/24 06:30:33;;;;;;;5.25;4.53;;;11.00;99.90;;;;;;4999168;28;20030;-61
2023/10/24 06:32:59;;;;;;;9.35;4.90;;;11.10;99.90;;;;;;5001084;28;20103;-60
2023/10/24 06:35:24;;;;;;;5.22;4.47;;;11.10;99.90;;;;;;5000809;28;20069;-60
2023/10/24 06:37:50;;;;;;;4.50;4.10;;;11.00;99.90;;;;;;4999482;28;20022;-60
2023/10/24 06:40:16;;;;;;;6.47;4.40;;;11.00;99.90;;;;;;4998024;28;20500;-60
2023/10/24 06:42:42;;;;;;;4.63;3.55;;;10.90;99.90;;;;;;5000654;28;20539;-60
2023/10/24 06:45:07;;;;;;;7.65;5.47;;;10.80;99.90;;;;;;5000379;28;20236;-60
2023/10/24 06:47:33;;;;;;;6.60;4.90;;;10.80;99.90;;;;;;5001637;28;20030;-60
2023/10/24 06:49:59;;;;;;;6.10;5.50;;;10.80;99.90;;;;;;5000620;28;20176;-60
2023/10/24 06:52:25;;;;;;;5.97;4.82;;;10.80;99.90;;;;;;5001776;28;20721;-60
2023/10/24 06:54:50;;;;;;;6.05;5.45;;;10.90;99.90;;;;;;5001029;28;20033;-61
2023/10/24 06:57:18;;;;;;;6.10;5.50;;;10.90;99.90;;;;;;5000255;28;20022;-61
2023/10/24 06:59:43;;;;;;;5.93;5.32;;;10.90;99.90;;;;;;4999642;28;20057;-60
2023/10/24 07:02:09;;;;;;;7.28;5.10;;;10.90;99.90;;;;;;4998851;28;20679;-61
2023/10/24 07:04:35;;;;;;;5.53;5.03;;;11.00;99.90;;;;;;4998341;28;20444;-61
2023/10/24 07:07:00;;;;;;;7.32;4.75;;;11.10;99.90;;;;;;4999652;28;20584;-60
2023/10/24 07:09:26;;;;;;;5.57;4.60;;;11.10;99.90;;;;;;4996386;28;20630;-59
2023/10/24 07:11:51;;;;;;;5.97;5.32;;;11.10;99.90;;;;;;4996716;28;20037;-60
2023/10/24 07:14:17;;;;;;;6.40;3.97;;;11.20;99.90;;;;;;4993111;28;20401;-59
2023/10/24 07:16:43;;;;;;;5.18;4.28;;;11.20;99.90;;;;;;4992845;28;20532;-60
2023/10/24 07:19:09;;;;;;;5.05;4.40;;;11.30;99.90;;;;;;4996837;28;20038;-61
2023/10/24 07:21:35;;;;;;;6.55;4.18;;;11.40;99.90;;;;;;4998081;28;20025;-60
2023/10/24 07:24:01;;;;;;;5.38;4.75;;;11.40;99.90;;;;;;4994410;28;20030;-61
2023/10/24 07:26:27;;;;;;;8.10;4.05;;;11.50;99.90;;;;;;4992063;28;20037;-60
2023/10/24 07:28:53;;;;;;;5.68;4.18;;;11.50;99.90;;;;;;4996308;28;20042;-59
2023/10/24 07:31:19;;;;;;;4.95;3.88;;;11.60;99.90;;;;;;4998307;28;20035;-60
2023/10/24 07:33:46;;;;;;;4.35;3.35;;;11.70;99.90;;;;;;4999184;28;20023;-60
2023/10/24 07:36:12;;;;;;;6.03;3.72;;;11.80;99.90;;;;;;4997360;28;20026;-60
2023/10/24 07:38:39;;;;;;;4.45;4.05;;;11.80;99.90;;;;;;4995927;28;20475;-59
2023/10/24 07:41:04;;;;;;;4.65;4.18;;;11.90;99.90;;;;;;4996211;28;20037;-60
2023/10/24 07:43:30;;;;;;;4.93;3.83;;;11.90;99.90;;;;;;4997879;28;20405;-60
2023/10/24 07:45:56;;;;;;;5.28;4.07;;;12.00;99.90;;;;;;4997231;28;20030;-60
2023/10/24 07:48:23;;;;;;;4.05;3.63;;;12.00;99.90;;;;;;4997293;28;20022;-60
2023/10/24 07:50:50;;;;;;;4.38;3.88;;;12.00;99.90;;;;;;4997652;28;20037;-59
2023/10/24 07:53:15;;;;;;;4.35;3.53;;;12.10;99.90;;;;;;4996677;28;20087;-60
2023/10/24 07:55:41;;;;;;;4.22;3.83;;;12.20;99.90;;;;;;4995176;28;20113;-61
2023/10/24 07:58:08;;;;;;;4.07;3.45;;;12.30;99.90;;;;;;4993848;28;20034;-60
2023/10/24 08:00:34;;;;;;;3.65;3.35;;;12.40;99.90;;;;;;4994701;28;20490;-59
2023/10/24 08:03:00;;;;;;;5.35;3.90;;;12.40;99.90;;;;;;4995768;28;20022;-60
2023/10/24 08:05:26;;;;;;;6.22;3.60;;;12.50;99.90;;;;;;5001010;28;20048;-61
2023/10/24 08:07:51;;;;;;;3.63;3.28;;;12.50;99.90;;;;;;4996549;28;20131;-60
2023/10/24 08:10:17;;;;;;;4.60;4.10;;;12.60;99.90;;;;;;4998600;28;20022;-60
2023/10/24 08:12:43;;;;;;;5.38;4.20;;;12.60;99.90;;;;;;4997255;28;20034;-60
2023/10/24 08:15:09;;;;;;;4.85;3.47;;;12.60;99.90;;;;;;4997613;28;20109;-59
2023/10/24 08:17:35;;;;;;;5.07;3.50;;;12.60;99.90;;;;;;4998638;28;20033;-60
2023/10/24 08:20:02;;;;;;;5.15;4.13;;;12.70;99.90;;;;;;4996367;28;20022;-61
2023/10/24 08:22:28;;;;;;;4.47;3.75;;;12.70;99.90;;;;;;4996047;28;20041;-61
2023/10/24 08:24:53;;;;;;;4.22;3.50;;;12.80;99.90;;;;;;4997113;28;20042;-60
2023/10/24 08:27:19;;;;;;;4.15;3.63;;;12.90;99.90;;;;;;4999436;28;20389;-61
2023/10/24 08:29:45;;;;;;;4.05;3.42;;;12.90;99.90;;;;;;4999439;28;20030;-61
2023/10/24 08:32:11;;;;;;;4.18;3.53;;;12.90;99.90;;;;;;4996541;28;20034;-60
2023/10/24 08:34:37;;;;;;;5.57;4.47;;;13.00;99.90;;;;;;4997350;28;20113;-60
2023/10/24 08:37:05;;;;;;;5.15;3.90;;;12.90;99.90;;;;;;4995854;28;20141;-61
2023/10/24 08:39:31;;;;;;;4.68;4.10;;;12.90;99.90;;;;;;4999971;28;20541;-60
2023/10/24 08:41:57;;;;;;;7.15;4.22;;;12.80;99.90;;;;;;4993178;28;20022;-60
2023/10/24 08:44:24;;;;;;;8.32;4.25;;;12.80;99.90;;;;;;4994030;28;20030;-60
2023/10/24 08:46:50;;;;;;;7.95;4.60;;;12.80;99.90;;;;;;4996534;28;20034;-60
2023/10/24 08:49:19;;;;;;;5.00;4.60;;;12.80;99.90;;;;;;4999387;28;20038;-61
2023/10/24 08:51:45;;;;;;;5.93;4.25;;;12.80;99.90;;;;;;4998857;28;20042;-60
2023/10/24 08:54:11;;;;;;;4.90;4.38;;;12.90;99.90;;;;;;4998225;28;20037;-60
2023/10/24 08:56:39;;;;;;;7.93;4.40;;;12.90;99.90;;;;;;4998444;28;20119;-60
2023/10/24 08:59:08;;;;;;;4.20;3.78;;;12.90;99.90;;;;;;4998500;28;20026;-60
2023/10/24 09:01:35;;;;;;;4.32;3.92;;;12.90;99.90;;;;;;5001022;28;20027;-60
2023/10/24 09:04:03;;;;;;;4.88;4.07;;;12.90;99.90;;;;;;4998668;28;20025;-61
2023/10/24 09:06:31;;;;;;;4.78;4.20;;;12.90;99.90;;;;;;4995627;28;20093;-60
2023/10/24 09:08:57;;;;;;;5.90;3.97;;;13.00;99.90;;;;;;4998104;28;20057;-61
2023/10/24 09:11:23;;;;;;;5.05;4.00;;;13.00;99.90;;;;;;4996532;28;20096;-60
2023/10/24 09:13:48;;;;;;;4.80;3.92;;;13.00;99.90;;;;;;4995316;28;20489;-60
2023/10/24 09:16:15;;;;;;;7.63;4.10;;;13.00;99.90;;;;;;4995880;28;20022;-62
2023/10/24 09:18:41;;;;;;;4.97;4.47;;;13.00;99.90;;;;;;4995791;28;20034;-60
2023/10/24 09:21:08;;;;;;;4.28;3.88;;;13.00;99.90;;;;;;4994929;28;20354;-61
2023/10/24 09:23:35;;;;;;;5.13;4.63;;;13.00;99.90;;;;;;4999488;28;20026;-60
2023/10/24 09:26:06;;;;;;;8.13;4.10;;;13.00;99.90;;;;;;4994308;28;20027;-61
2023/10/24 09:28:33;;;;;;;5.38;4.07;;;13.00;99.90;;;;;;4997161;28;20035;-60
2023/10/24 09:31:00;;;;;;;4.93;3.95;;;13.10;99.90;;;;;;4998505;28;20062;-60
2023/10/24 09:33:28;;;;;;;4.70;3.88;;;13.10;99.90;;;;;;4999551;28;20394;-60
2023/10/24 09:35:56;;;;;;;4.47;4.07;;;13.10;99.90;;;;;;5000391;28;20105;-59
2023/10/24 09:38:23;;;;;;;5.07;4.40;;;13.10;99.90;;;;;;4998522;28;20032;-59
2023/10/24 09:40:51;;;;;;;4.82;4.38;;;13.10;99.90;;;;;;4998492;28;20086;-60
2023/10/24 09:43:22;;;;;;;4.15;3.75;;;13.10;99.90;;;;;;4998533;28;20102;-60
2023/10/24 09:45:50;;;;;;;5.75;3.70;;;13.10;99.90;;;;;;4998527;28;20027;-60
2023/10/24 09:48:17;;;;;;;4.88;3.83;;;13.10;99.90;;;;;;4998919;28;20029;-61
2023/10/24 09:50:43;;;;;;;3.97;3.08;;;13.10;99.90;;;;;;5001048;28;20026;-60
2023/10/24 09:53:10;;;;;;;4.13;3.42;;;13.20;99.90;;;;;;4999809;28;20052;-59
2023/10/24 09:55:41;;;;;;;4.90;3.60;;;13.20;99.90;;;;;;5000740;28;20393;-59
2023/10/24 09:58:08;;;;;;;;;;;13.30;99.90;;;;;;4999412;28;20470;-60
2023/10/24 10:00:34;;;;;;;6.55;4.50;;;13.30;99.90;;;;;;4998564;28;20289;-60
2023/10/24 10:03:00;;;;;;;7.30;3.70;;;13.20;99.90;;;;;;4999618;28;20553;-60
2023/10/24 10:05:29;;;;;;;6.10;3.67;;;13.30;99.90;;;;;;4999957;28;20117;-60
2023/10/24 10:07:57;;;;;;;4.53;3.38;;;13.20;99.90;;;;;;5000812;28;20406;-60
2023/10/24 10:10:24;;;;;;;3.63;3.13;;;13.20;99.90;;;;;;5012974;28;20023;-61
2023/10/24 10:12:55;;;;;;;4.00;3.63;;;13.10;99.90;;;;;;5003458;28;20029;-60
2023/10/24 10:15:47;;;;;;;6.65;4.60;;;13.10;99.90;;;;;;4999876;28;20022;-61
2023/10/24 10:18:46;;;;;;;4.30;3.83;;;13.10;99.90;;;;;;4999102;28;20310;-60
2023/10/24 10:21:49;;;;;;;5.38;3.90;;;13.10;99.90;;;;;;4996873;28;20018;-60
2023/10/24 10:24:49;;;;;;;5.53;3.65;;;13.20;99.90;;;;;;4999099;28;20133;-59
2023/10/24 10:27:36;;;;;;;7.95;4.25;;;13.20;99.90;;;;;;5000115;28;20113;-60
2023/10/24 10:30:18;;;;;;;4.65;3.65;;;13.30;99.90;;;;;;5000873;28;20022;-61
2023/10/24 10:33:16;;;;;;;5.97;3.67;;;13.30;99.90;;;;;;4998986;28;20078;-61
2023/10/24 10:35:53;;;;;;;4.07;3.70;;;13.30;99.90;;;;;;4998053;28;20046;-60
2023/10/24 10:38:47;;;;;;;6.63;3.38;;;13.40;99.90;;;;;;4997373;28;20027;-61
2023/10/24 10:41:21;;;;;;;4.63;4.18;;;13.40;99.90;;;;;;4998089;28;20495;-61
2023/10/24 10:43:59;;;;;;;4.13;3.67;;;13.50;99.90;;;;;;4998087;28;20153;-59
2023/10/24 10:46:26;;;;;;;4.78;4.28;;;13.50;99.90;;;;;;4999275;28;20022;-60
2023/10/24 10:49:12;;;;;;;4.28;3.55;;;13.50;99.90;;;;;;4996794;28;20030;-60
2023/10/24 10:51:39;;;;;;;4.53;4.03;;;13.60;99.90;;;;;;4996386;28;20492;-61
2023/10/24 10:54:04;;;;;;;5.80;4.25;;;13.60;99.90;;;;;;4997581;28;20038;-60
2023/10/24 10:56:33;;;;;;;10.23;5.70;;;13.60;99.90;;;;;;5000047;28;20048;-61
2023/10/24 10:58:59;;;;;;;4.68;3.80;;;13.60;99.90;;;;;;4997392;28;20328;-61
2023/10/24 11:01:29;;;;;;;6.30;4.25;;;13.50;99.90;;;;;;4996157;28;20050;-61
2023/10/24 11:03:58;;;;;;;6.07;5.10;;;13.40;99.90;;;;;;4995449;28;20026;-61
2023/10/24 11:06:28;;;;;;;5.55;4.55;;;13.30;99.90;;;;;;4997668;28;20031;-61
2023/10/24 11:09:10;;;;;;;6.22;4.53;;;13.20;99.90;;;;;;4995836;28;20486;-61
2023/10/24 11:11:37;;;;;;;5.93;5.30;;;13.10;99.90;;;;;;4998473;28;20490;-62
2023/10/24 11:14:23;;;;;;;7.97;5.97;;;13.10;99.90;;;;;;5005596;28;20136;-61
2023/10/24 11:16:50;;;;;;;6.80;6.13;;;13.00;99.90;;;;;;4998472;28;20023;-61
2023/10/24 11:19:20;;;;;;;12.32;5.57;;;13.00;99.90;;;;;;4992504;28;20031;-61
2023/10/24 11:21:54;;;;;;;7.93;6.32;;;12.90;99.90;;;;;;4996553;28;20030;-61
2023/10/24 11:24:21;;;;;;;6.93;6.32;;;12.90;99.90;;;;;;4999728;28;20029;-62
2023/10/24 11:26:57;;;;;;;8.98;6.55;;;12.80;99.90;;;;;;4998197;28;20021;-61
2023/10/24 11:29:23;;;;;;;7.85;7.07;;;12.80;99.90;;;;;;4994334;28;20022;-61
2023/10/24 11:31:49;;;;;;;7.93;7.22;;;12.70;99.90;;;;;;4997947;28;20033;-62
2023/10/24 11:34:15;;;;;;;10.50;7.88;;;12.70;99.90;;;;;;4998090;28;20026;-61
2023/10/24 11:36:42;;;;;;;9.30;7.82;;;12.60;99.90;;;;;;4998559;28;20034;-61
2023/10/24 11:39:08;;;;;;;13.80;8.43;;;12.60;99.90;;;;;;4997187;28;20034;-62
2023/10/24 11:41:35;;;;;;;10.88;8.48;;;12.50;99.90;;;;;;4997870;28;20054;-60
2023/10/24 11:44:01;;;;;;;10.02;9.05;;;12.50;99.90;;;;;;4997609;28;20097;-62
2023/10/24 11:46:27;;;;;;;9.82;8.93;;;12.50;99.90;;;;;;4995997;28;20037;-61
2023/10/24 11:48:52;;;;;;;12.82;9.20;;;12.50;99.90;;;;;;4993278;28;20047;-62
2023/10/24 11:51:18;;;;;;;9.48;8.55;;;12.50;99.90;;;;;;4998375;28;20026;-62
2023/10/24 11:53:44;;;;;;;9.75;8.90;;;12.50;99.90;;;;;;4997761;28;20057;-62
2023/10/24 11:56:10;;;;;;;10.30;9.10;;;12.50;99.90;;;;;;5000511;28;20417;-61
2023/10/24 11:58:35;;;;;;;10.23;9.23;;;12.40;99.90;;;;;;4995258;28;20026;-61
2023/10/24 12:01:01;;;;;;;10.50;9.50;;;12.40;99.90;;;;;;4996842;28;20563;-62
2023/10/24 12:03:40;;;;;;;11.30;10.02;;;12.40;99.90;;;;;;4996874;28;20038;-62
2023/10/24 12:06:08;;;;;;;19.60;9.90;;;12.40;99.90;;;;;;4997831;28;20026;-61
2023/10/24 12:08:35;;;;;;;10.85;9.82;;;12.40;99.90;;;;;;4996273;28;20026;-61
2023/10/24 12:11:00;;;;;;;16.75;10.00;;;12.40;99.90;;;;;;4995456;28;20033;-62
2023/10/24 12:13:26;;;;;;;13.35;10.68;;;12.40;99.90;;;;;;4994232;28;20480;-62
2023/10/24 12:15:52;;;;;;;12.55;10.63;;;12.40;99.90;;;;;;4993942;28;20036;-62
2023/10/24 12:18:18;;;;;;;10.60;9.70;;;12.30;99.90;;;;;;5013185;28;20109;-62
2023/10/24 12:20:43;;;;;;;19.70;10.95;;;12.20;99.90;;;;;;4996173;28;20026;-62
2023/10/24 12:23:09;;;;;;;11.60;10.50;;;12.20;99.90;;;;;;4996758;28;20033;-62
2023/10/24 12:25:35;;;;;;;13.43;10.75;;;12.20;99.90;;;;;;4995686;28;20034;-63
2023/10/24 12:28:00;;;;;;;12.88;11.50;;;12.30;99.90;;;;;;4993988;28;20390;-61
2023/10/24 12:30:26;;;;;;;16.85;10.55;;;12.30;99.90;;;;;;4999048;28;20053;-61
2023/10/24 12:32:53;;;;;;;15.40;11.23;;;12.30;99.90;;;;;;5002614;28;20244;-64
2023/10/24 12:35:19;;;;;;;13.85;11.32;;;12.30;99.90;;;;;;4998086;28;20061;-63
2023/10/24 12:37:45;;;;;;;11.88;10.77;;;12.30;99.90;;;;;;4994290;28;20104;-63
2023/10/24 12:40:11;;;;;;;18.38;11.18;;;12.30;99.90;;;;;;5000935;28;20034;-63
2023/10/24 12:42:36;;;;;;;17.05;11.30;;;12.20;99.90;;;;;;4999887;28;20026;-63
2023/10/24 12:45:05;;;;;;;12.05;9.88;;;12.20;99.90;;;;;;4995104;28;20034;-63